Cruise inventory

Prince Madog ISIS44

Cruise summary report

Cruise Info. 
Ship name (ship code)Prince Madog (74PD)
Cruise identifierISIS44
Cruise period1985-09-17 — 1985-09-20
StatusCompleted
Port of departureMenai Bridge, United Kingdom
Port of returnMenai Bridge, United Kingdom
PurposeResearch
ObjectivesSurvey cruise contributing to research directed toward an understanding of how the physics of the Irish Sea and surrounding regions (Celtic Sea, St, George's Channel, North Channel and Clyde Sea) determined biogeochemical processes and sediment transport.
Chief scientistJuan Brown (University of Wales, Bangor School of Ocean Sciences)
ProjectInterdisciplinary Study of the Irish Sea
Ocean/sea areas 
GeneralIrish Sea and St. George's Channel
Measurements 
Physical oceanography 
Surface measurements underway (T,S)
Water bottle stationsQuantity: number of stations = 29
Description: surface only
CTD stationsQuantity: number of stations = 39
Description: disc
Transparency (eg transmissometer)
Optics (eg underwater light levels)Quantity: 13
Description: disc,irradiance meter
Chemical oceanography 
Trace elementsQuantity: 36
Contamination 
Trace metalsQuantity: 36
Biology and fisheries 
Phytoplankton pigs (eg chlorophyll, fluorescence)Quantity: 39
Dissolved organic matter (inc DOC)Quantity: 39
SestonQuantity: 39
Meteorology 
Incident radiation
Data held at BODC 
Series/Profiles 
72  CTD/STD cast
Electrical conductivity of the water column
Vertical spatial coordinates
Salinity of the water column
Temperature of the water column
Electrical conductivity of the water column
Vertical spatial coordinates
Salinity of the water column
Temperature of the water column

BODC idDate/TimeLocationDoc.
2797361985-09-17 16:48 53° 34' 59" N  3° 30' 0" W  View metadata report for BODC series reference number 279736
2797481985-09-18 04:19 53° 27' 29" N  3° 40' 0" W  View metadata report for BODC series reference number 279748
2797611985-09-18 05:13 53° 27' 29" N  3° 32' 30" W  View metadata report for BODC series reference number 279761
2797731985-09-18 06:08 53° 27' 29" N  3° 25' 0" W  View metadata report for BODC series reference number 279773
2797851985-09-18 07:11 53° 27' 29" N  3° 15' 0" W  View metadata report for BODC series reference number 279785
2797971985-09-18 09:03 53° 23' 59" N  3° 27' 29" W  View metadata report for BODC series reference number 279797
2798041985-09-18 10:48 53° 23' 30" N  3° 40' 0" W  View metadata report for BODC series reference number 279804
2798161985-09-18 17:28 53° 34' 59" N  3° 27' 29" W  View metadata report for BODC series reference number 279816
2798281985-09-18 17:59 53° 34' 59" N  3° 27' 29" W  View metadata report for BODC series reference number 279828
2798411985-09-18 18:30 53° 34' 59" N  3° 27' 29" W  View metadata report for BODC series reference number 279841
2798531985-09-18 19:01 53° 34' 59" N  3° 27' 29" W  View metadata report for BODC series reference number 279853
2798651985-09-18 19:30 53° 34' 59" N  3° 27' 29" W  View metadata report for BODC series reference number 279865
2798771985-09-18 19:59 53° 34' 59" N  3° 27' 29" W  View metadata report for BODC series reference number 279877
2798891985-09-18 20:31 53° 34' 59" N  3° 27' 29" W  View metadata report for BODC series reference number 279889
2798901985-09-18 21:00 53° 34' 59" N  3° 27' 29" W  View metadata report for BODC series reference number 279890
2799081985-09-18 21:30 53° 34' 59" N  3° 27' 29" W  View metadata report for BODC series reference number 279908
2799211985-09-18 22:00 53° 34' 59" N  3° 27' 29" W  View metadata report for BODC series reference number 279921
2799331985-09-18 22:32 53° 34' 59" N  3° 27' 29" W  View metadata report for BODC series reference number 279933
2799451985-09-18 22:59 53° 34' 59" N  3° 27' 29" W  View metadata report for BODC series reference number 279945
2799571985-09-18 23:30 53° 34' 59" N  3° 27' 29" W  View metadata report for BODC series reference number 279957
2799691985-09-18 23:59 53° 34' 59" N  3° 27' 29" W  View metadata report for BODC series reference number 279969
2799701985-09-19 00:30 53° 34' 59" N  3° 27' 29" W  View metadata report for BODC series reference number 279970
2803561985-09-19 06:02 53° 34' 59" N  3° 27' 29" W  View metadata report for BODC series reference number 280356
2803681985-09-19 06:32 53° 34' 59" N  3° 27' 29" W  View metadata report for BODC series reference number 280368
2803811985-09-19 07:01 53° 34' 59" N  3° 27' 29" W  View metadata report for BODC series reference number 280381
2803931985-09-19 13:01 53° 23' 59" N  3° 49' 59" W  View metadata report for BODC series reference number 280393
2804001985-09-19 14:06 53° 21' 29" N  3° 45' 0" W  View metadata report for BODC series reference number 280400
2799821985-09-19 01:01 53° 34' 59" N  3° 27' 29" W  View metadata report for BODC series reference number 279982
2799941985-09-19 01:30 53° 34' 59" N  3° 27' 29" W  View metadata report for BODC series reference number 279994
2800061985-09-19 01:58 53° 34' 59" N  3° 27' 29" W  View metadata report for BODC series reference number 280006
2800181985-09-19 02:29 53° 34' 59" N  3° 27' 29" W  View metadata report for BODC series reference number 280018
2800311985-09-19 03:00 53° 34' 59" N  3° 27' 29" W  View metadata report for BODC series reference number 280031
2800431985-09-18 13:37 53° 34' 59" N  3° 40' 0" W  View metadata report for BODC series reference number 280043
2800551985-09-17 15:09 53° 34' 59" N  3° 40' 0" W  View metadata report for BODC series reference number 280055
2800671985-09-17 13:47 53° 34' 59" N  3° 49' 59" W  View metadata report for BODC series reference number 280067
2800791985-09-17 22:10 53° 37' 30" N  3° 32' 30" W  View metadata report for BODC series reference number 280079
2800801985-09-18 12:00 53° 30' 0" N  3° 40' 0" W  View metadata report for BODC series reference number 280080
2800921985-09-18 15:50 53° 34' 59" N  3° 25' 0" W  View metadata report for BODC series reference number 280092
2801111985-09-17 12:28 53° 34' 59" N  4° 0' 0" W  View metadata report for BODC series reference number 280111
2801231985-09-17 17:54 53° 34' 59" N  3° 19' 59" W  View metadata report for BODC series reference number 280123
2801351985-09-20 02:51 53° 42' 29" N  3° 25' 0" W  View metadata report for BODC series reference number 280135
2801471985-09-20 03:42 53° 32' 30" N  3° 32' 30" W  View metadata report for BODC series reference number 280147
2801591985-09-19 23:39 53° 37' 30" N  3° 40' 0" W  View metadata report for BODC series reference number 280159
2801601985-09-20 00:18 53° 37' 30" N  3° 32' 30" W  View metadata report for BODC series reference number 280160
2801721985-09-20 01:05 53° 37' 30" N  3° 25' 0" W  View metadata report for BODC series reference number 280172
2801841985-09-20 01:41 53° 37' 30" N  3° 17' 30" W  View metadata report for BODC series reference number 280184
2801961985-09-19 19:36 53° 32' 30" N  3° 15' 0" W  View metadata report for BODC series reference number 280196
2802031985-09-19 20:35 53° 32' 30" N  3° 25' 0" W  View metadata report for BODC series reference number 280203
2802151985-09-19 21:36 53° 32' 30" N  3° 34' 59" W  View metadata report for BODC series reference number 280215
2802271985-09-19 22:43 53° 32' 30" N  3° 45' 0" W  View metadata report for BODC series reference number 280227
2802391985-09-19 15:57 53° 27' 29" N  3° 32' 30" W  View metadata report for BODC series reference number 280239
2802401985-09-19 17:19 53° 27' 29" N  3° 25' 0" W  View metadata report for BODC series reference number 280240
2802521985-09-19 18:32 53° 27' 29" N  3° 15' 0" W  View metadata report for BODC series reference number 280252
2802641985-09-19 09:16 53° 23' 59" N  3° 27' 29" W  View metadata report for BODC series reference number 280264
2802761985-09-19 09:28 53° 23' 59" N  3° 27' 29" W  View metadata report for BODC series reference number 280276
2802881985-09-19 11:17 53° 23' 30" N  3° 40' 0" W  View metadata report for BODC series reference number 280288
2803071985-09-19 03:30 53° 34' 59" N  3° 27' 29" W  View metadata report for BODC series reference number 280307
2803191985-09-19 04:00 53° 34' 59" N  3° 27' 29" W  View metadata report for BODC series reference number 280319
2803201985-09-19 04:31 53° 34' 59" N  3° 27' 29" W  View metadata report for BODC series reference number 280320
2803321985-09-19 05:02 53° 34' 59" N  3° 27' 29" W  View metadata report for BODC series reference number 280332
2803441985-09-19 05:31 53° 34' 59" N  3° 27' 29" W  View metadata report for BODC series reference number 280344
2880821985-09-17 19:11 53° 42' 29" N  3° 25' 0" W  View metadata report for BODC series reference number 288082
2880941985-09-17 20:06 53° 42' 29" N  3° 32' 30" W  View metadata report for BODC series reference number 288094
2881011985-09-17 21:24 53° 37' 30" N  3° 40' 0" W  View metadata report for BODC series reference number 288101
2881131985-09-17 21:57 53° 37' 30" N  3° 32' 30" W  View metadata report for BODC series reference number 288113
2881251985-09-17 22:54 53° 37' 30" N  3° 25' 0" W  View metadata report for BODC series reference number 288125
2881371985-09-17 23:29 53° 37' 30" N  3° 17' 30" W  View metadata report for BODC series reference number 288137
2881491985-09-18 00:21 53° 32' 30" N  3° 15' 0" W  View metadata report for BODC series reference number 288149
2881501985-09-18 01:20 53° 32' 30" N  3° 25' 0" W  View metadata report for BODC series reference number 288150
2881621985-09-18 02:15 53° 32' 30" N  3° 34' 59" W  View metadata report for BODC series reference number 288162
2881741985-09-18 03:07 53° 32' 30" N  3° 45' 0" W  View metadata report for BODC series reference number 288174
2881861985-09-18 14:43 53° 34' 59" N  3° 30' 0" W  View metadata report for BODC series reference number 288186